Terminal Aerodrome Forecast
Issued by NWS Knoxville/Tri Cities, TN

Home | Current Version | Previous Version | Text Only | Print | Product List | Glossary On
Versions: 1 2 3 4 5 6 7 8 9 10 11 12 13 14 15 16
000
FTUS44 KMRX 281727
TAFTRI
TAF
KTRI 281727Z 2818/2918 24012KT P6SM SCT040 BKN100
     FM290000 24006KT P6SM BKN100
     FM290600 24005KT 6SM BR VCSH BKN035
     FM291400 26004KT 6SM BR OVC040=

USA.gov is the U.S. government's official web portal to all federal, state and local government web resources and services.